RYR363C LEMI-EGHH
Flight info
| Callsign | RYR363C |
|---|---|
| Flight time | N/A |
| Altitude | 38000 |
| Route | ALT N851 MITOS N608 COMPI Y90 USKAR DCT MOPAS DCT GIROM DCT AGN DCT SECHE DCT UVELI DCT CNA DCT MANAK UY110 ORIST Y110 THRED |
| Aircraft | B738/M-SDE2E3FGHIRWXY/LB1 |
Departure
| Time | N/A |
|---|---|
| Airport | Region of Murcia International Airport (LEMI) |
Arrival
| Time | 2026-05-01 14:33 |
|---|---|
| Airport | Bournemouth Airport (EGHH) |
| Time | Latitude | Longitude | Altitude | Speed | Heading |
|---|---|---|---|---|---|
| 2026-05-01 13:16 | 42.70329 | 1.00488 | 38236 ft | 457 kts | 353° |
| 2026-05-01 13:17 | 42.79740 | 0.99461 | 38210 ft | 446 kts | 353° |
| 2026-05-01 13:17 | 42.82771 | 0.99131 | 38226 ft | 447 kts | 353° |
| 2026-05-01 13:18 | 42.92095 | 0.98111 | 38211 ft | 447 kts | 353° |
| 2026-05-01 13:18 | 42.98258 | 0.97434 | 38218 ft | 447 kts | 353° |
| 2026-05-01 13:19 | 43.04454 | 0.96750 | 38200 ft | 448 kts | 353° |
| 2026-05-01 13:20 | 43.13743 | 0.95723 | 38194 ft | 448 kts | 353° |
| 2026-05-01 13:20 | 43.19965 | 0.95034 | 38191 ft | 448 kts | 353° |
| 2026-05-01 13:21 | 43.29281 | 0.93998 | 38187 ft | 449 kts | 353° |
| 2026-05-01 13:21 | 43.35506 | 0.93305 | 38194 ft | 449 kts | 353° |
| 2026-05-01 13:22 | 43.41597 | 0.92625 | 38190 ft | 449 kts | 353° |
| 2026-05-01 13:22 | 43.47835 | 0.91927 | 38191 ft | 450 kts | 353° |
| 2026-05-01 13:23 | 43.54088 | 0.91226 | 38192 ft | 450 kts | 353° |
| 2026-05-01 13:23 | 43.60298 | 0.90528 | 38187 ft | 450 kts | 353° |
| 2026-05-01 13:24 | 43.66444 | 0.89836 | 38185 ft | 451 kts | 353° |
| 2026-05-01 13:25 | 43.75772 | 0.88781 | 38192 ft | 451 kts | 353° |
| 2026-05-01 13:25 | 43.82043 | 0.88070 | 38191 ft | 452 kts | 353° |
| 2026-05-01 13:26 | 43.88286 | 0.87115 | 38178 ft | 450 kts | 345° |
| 2026-05-01 13:26 | 43.94110 | 0.84093 | 38199 ft | 446 kts | 333° |
| 2026-05-01 13:27 | 43.99695 | 0.80407 | 38187 ft | 448 kts | 333° |
| 2026-05-01 13:27 | 44.08309 | 0.75406 | 38194 ft | 450 kts | 336° |
| 2026-05-01 13:28 | 44.17043 | 0.70447 | 38178 ft | 452 kts | 336° |
| 2026-05-01 13:29 | 44.28527 | 0.63776 | 38191 ft | 453 kts | 335° |
| 2026-05-01 13:31 | 44.45948 | 0.53569 | 38181 ft | 454 kts | 335° |
| 2026-05-01 13:32 | 44.60403 | 0.45054 | 38193 ft | 451 kts | 335° |
| 2026-05-01 13:33 | 44.74804 | 0.36525 | 38208 ft | 449 kts | 335° |
| 2026-05-01 13:34 | 44.86304 | 0.29679 | 38204 ft | 448 kts | 335° |
| 2026-05-01 13:35 | 44.94889 | 0.24550 | 38200 ft | 448 kts | 335° |
| 2026-05-01 13:36 | 45.03495 | 0.19392 | 38186 ft | 448 kts | 335° |
| 2026-05-01 13:36 | 45.12119 | 0.14205 | 38184 ft | 449 kts | 335° |
| 2026-05-01 13:37 | 45.17850 | 0.10749 | 38189 ft | 450 kts | 335° |
| 2026-05-01 13:37 | 45.23629 | 0.07256 | 38187 ft | 451 kts | 335° |
| 2026-05-01 13:38 | 45.32269 | 0.02020 | 38190 ft | 452 kts | 335° |
| 2026-05-01 13:39 | 45.37907 | -0.01406 | 38191 ft | 452 kts | 335° |
| 2026-05-01 13:39 | 45.43700 | -0.04934 | 38186 ft | 453 kts | 335° |
| 2026-05-01 13:40 | 45.49478 | -0.08461 | 38181 ft | 453 kts | 335° |
| 2026-05-01 13:40 | 45.55268 | -0.12003 | 38188 ft | 452 kts | 335° |
| 2026-05-01 13:41 | 45.61013 | -0.15526 | 38186 ft | 452 kts | 335° |
| 2026-05-01 13:41 | 45.66797 | -0.19080 | 38186 ft | 452 kts | 335° |
| 2026-05-01 13:42 | 45.72588 | -0.22647 | 38183 ft | 452 kts | 334° |
| 2026-05-01 13:42 | 45.78333 | -0.26194 | 38191 ft | 451 kts | 334° |
| 2026-05-01 13:43 | 45.84109 | -0.29767 | 38190 ft | 450 kts | 334° |
| 2026-05-01 13:43 | 45.89815 | -0.33306 | 38188 ft | 449 kts | 334° |
| 2026-05-01 13:44 | 45.95556 | -0.36874 | 38192 ft | 448 kts | 334° |
| 2026-05-01 13:44 | 46.01237 | -0.40413 | 38196 ft | 448 kts | 334° |
| 2026-05-01 13:45 | 46.06961 | -0.43987 | 38186 ft | 448 kts | 334° |
| 2026-05-01 13:45 | 46.12703 | -0.47580 | 38190 ft | 448 kts | 334° |
| 2026-05-01 13:46 | 46.18398 | -0.51152 | 38196 ft | 448 kts | 334° |
| 2026-05-01 13:46 | 46.24128 | -0.54754 | 38189 ft | 449 kts | 334° |
| 2026-05-01 13:47 | 46.29864 | -0.58368 | 38189 ft | 449 kts | 334° |
| 2026-05-01 13:47 | 46.35552 | -0.61959 | 38190 ft | 449 kts | 334° |
| 2026-05-01 13:48 | 46.41287 | -0.65589 | 38191 ft | 449 kts | 334° |
| 2026-05-01 13:48 | 46.47036 | -0.69236 | 38187 ft | 450 kts | 334° |
| 2026-05-01 13:49 | 46.52735 | -0.72860 | 38187 ft | 450 kts | 334° |
| 2026-05-01 13:49 | 46.58474 | -0.76518 | 38194 ft | 450 kts | 334° |
| 2026-05-01 13:50 | 46.63248 | -0.79567 | 38180 ft | 450 kts | 334° |
| 2026-05-01 13:50 | 46.68988 | -0.83241 | 38188 ft | 450 kts | 334° |
| 2026-05-01 13:51 | 46.74731 | -0.86925 | 38183 ft | 450 kts | 334° |
| 2026-05-01 13:51 | 46.80434 | -0.90592 | 38185 ft | 450 kts | 334° |
| 2026-05-01 13:52 | 46.86164 | -0.94285 | 38191 ft | 450 kts | 334° |
| 2026-05-01 13:52 | 46.91904 | -0.97994 | 38184 ft | 450 kts | 334° |
| 2026-05-01 13:53 | 46.97430 | -1.01572 | 38194 ft | 450 kts | 334° |
| 2026-05-01 13:53 | 47.06031 | -1.07158 | 38189 ft | 450 kts | 334° |
| 2026-05-01 13:54 | 47.11729 | -1.10869 | 38188 ft | 450 kts | 334° |
| 2026-05-01 13:54 | 47.17466 | -1.14614 | 38196 ft | 450 kts | 334° |
| 2026-05-01 13:55 | 47.23170 | -1.18348 | 38188 ft | 450 kts | 334° |
| 2026-05-01 13:55 | 47.28904 | -1.22109 | 38192 ft | 450 kts | 334° |
| 2026-05-01 13:56 | 47.34608 | -1.25860 | 38189 ft | 450 kts | 333° |
| 2026-05-01 13:56 | 47.40340 | -1.29638 | 38191 ft | 450 kts | 333° |
| 2026-05-01 13:57 | 47.46058 | -1.33416 | 38188 ft | 450 kts | 333° |
| 2026-05-01 13:57 | 47.51751 | -1.37186 | 38192 ft | 450 kts | 333° |
| 2026-05-01 13:58 | 47.57465 | -1.40980 | 38198 ft | 450 kts | 333° |
| 2026-05-01 13:58 | 47.63179 | -1.44783 | 38186 ft | 450 kts | 333° |
| 2026-05-01 13:59 | 47.68864 | -1.48576 | 38190 ft | 450 kts | 333° |
| 2026-05-01 13:59 | 47.74584 | -1.52401 | 38206 ft | 450 kts | 333° |
| 2026-05-01 14:00 | 47.80259 | -1.56205 | 38207 ft | 450 kts | 333° |
| 2026-05-01 14:00 | 47.85970 | -1.60044 | 38195 ft | 450 kts | 333° |
| 2026-05-01 14:01 | 47.91692 | -1.63900 | 38202 ft | 450 kts | 333° |
| 2026-05-01 14:01 | 47.97381 | -1.67744 | 38210 ft | 450 kts | 333° |
| 2026-05-01 14:02 | 48.03051 | -1.71581 | 38218 ft | 450 kts | 333° |
| 2026-05-01 14:02 | 48.09066 | -1.74230 | 38216 ft | 454 kts | 351° |
| 2026-05-01 14:03 | 48.15422 | -1.74495 | 38213 ft | 456 kts | 358° |
| 2026-05-01 14:03 | 48.21700 | -1.74441 | 38181 ft | 457 kts | 358° |
| 2026-05-01 14:04 | 48.24899 | -1.74433 | 37798 ft | 459 kts | 358° |
| 2026-05-01 14:04 | 48.28044 | -1.74444 | 37446 ft | 453 kts | 358° |
| 2026-05-01 14:04 | 48.31186 | -1.74469 | 37094 ft | 447 kts | 358° |
| 2026-05-01 14:04 | 48.34290 | -1.74502 | 36689 ft | 443 kts | 358° |
| 2026-05-01 14:05 | 48.37365 | -1.74539 | 36316 ft | 439 kts | 358° |
| 2026-05-01 14:05 | 48.40410 | -1.74578 | 35936 ft | 435 kts | 358° |
| 2026-05-01 14:05 | 48.43392 | -1.74615 | 35562 ft | 432 kts | 358° |
| 2026-05-01 14:05 | 48.46404 | -1.74652 | 35178 ft | 429 kts | 358° |
| 2026-05-01 14:06 | 48.49385 | -1.74689 | 34803 ft | 427 kts | 358° |
| 2026-05-01 14:06 | 48.52346 | -1.74725 | 34427 ft | 424 kts | 358° |
| 2026-05-01 14:06 | 48.55285 | -1.74760 | 34029 ft | 422 kts | 358° |
| 2026-05-01 14:06 | 48.58212 | -1.74795 | 33615 ft | 419 kts | 358° |
| 2026-05-01 14:07 | 48.61087 | -1.74830 | 33228 ft | 416 kts | 358° |
| 2026-05-01 14:07 | 48.63973 | -1.74864 | 32865 ft | 413 kts | 358° |
| 2026-05-01 14:07 | 48.66845 | -1.74899 | 32491 ft | 409 kts | 358° |
| 2026-05-01 14:08 | 48.72504 | -1.74968 | 31765 ft | 404 kts | 358° |
| 2026-05-01 14:08 | 48.75280 | -1.75002 | 31413 ft | 401 kts | 359° |
| 2026-05-01 14:08 | 48.78068 | -1.75036 | 31059 ft | 399 kts | 359° |
| 2026-05-01 14:08 | 48.80834 | -1.75070 | 30709 ft | 396 kts | 359° |
| 2026-05-01 14:09 | 48.83586 | -1.75105 | 30362 ft | 394 kts | 359° |
| 2026-05-01 14:09 | 48.86335 | -1.75139 | 29960 ft | 392 kts | 359° |
| 2026-05-01 14:09 | 48.89054 | -1.75172 | 29563 ft | 389 kts | 359° |
| 2026-05-01 14:09 | 48.91750 | -1.75200 | 29222 ft | 384 kts | 359° |
| 2026-05-01 14:10 | 48.94393 | -1.75146 | 28978 ft | 377 kts | 0° |
| 2026-05-01 14:10 | 48.97014 | -1.75039 | 28650 ft | 374 kts | 1° |
| 2026-05-01 14:10 | 48.99570 | -1.74921 | 28292 ft | 371 kts | 1° |
| 2026-05-01 14:10 | 49.02134 | -1.74804 | 27929 ft | 369 kts | 1° |
| 2026-05-01 14:11 | 49.04701 | -1.74693 | 27572 ft | 367 kts | 1° |
| 2026-05-01 14:11 | 49.09781 | -1.74489 | 26872 ft | 363 kts | 2° |
| 2026-05-01 14:11 | 49.12302 | -1.74392 | 26526 ft | 361 kts | 2° |
| 2026-05-01 14:12 | 49.14808 | -1.74297 | 26182 ft | 359 kts | 2° |
| 2026-05-01 14:12 | 49.17276 | -1.74204 | 25841 ft | 358 kts | 2° |
| 2026-05-01 14:12 | 49.19766 | -1.74110 | 25498 ft | 356 kts | 2° |
| 2026-05-01 14:12 | 49.22219 | -1.74017 | 25158 ft | 355 kts | 2° |
| 2026-05-01 14:13 | 49.24686 | -1.73924 | 24888 ft | 353 kts | 2° |
| 2026-05-01 14:13 | 49.26349 | -1.73861 | 24738 ft | 358 kts | 2° |
| 2026-05-01 14:13 | 49.29802 | -1.73728 | 24480 ft | 390 kts | 2° |
| 2026-05-01 14:13 | 49.32582 | -1.73620 | 24261 ft | 403 kts | 2° |
| 2026-05-01 14:14 | 49.35395 | -1.73514 | 24021 ft | 404 kts | 2° |
| 2026-05-01 14:14 | 49.38201 | -1.73409 | 23703 ft | 401 kts | 2° |
| 2026-05-01 14:14 | 49.40943 | -1.73306 | 23270 ft | 397 kts | 2° |
| 2026-05-01 14:14 | 49.43697 | -1.73202 | 22830 ft | 394 kts | 2° |
| 2026-05-01 14:15 | 49.46436 | -1.73099 | 22395 ft | 391 kts | 2° |
| 2026-05-01 14:15 | 49.49154 | -1.72997 | 21972 ft | 388 kts | 2° |
| 2026-05-01 14:15 | 49.51857 | -1.72895 | 21544 ft | 386 kts | 2° |
| 2026-05-01 14:15 | 49.54498 | -1.72794 | 21132 ft | 384 kts | 2° |
| 2026-05-01 14:16 | 49.57165 | -1.72692 | 20719 ft | 382 kts | 2° |
| 2026-05-01 14:16 | 49.59822 | -1.72673 | 20289 ft | 381 kts | 357° |
| 2026-05-01 14:16 | 49.62455 | -1.73233 | 19726 ft | 384 kts | 350° |
| 2026-05-01 14:16 | 49.65084 | -1.74016 | 19268 ft | 383 kts | 349° |
| 2026-05-01 14:17 | 49.67695 | -1.74831 | 18849 ft | 381 kts | 348° |
| 2026-05-01 14:17 | 49.70274 | -1.75633 | 18412 ft | 380 kts | 349° |
| 2026-05-01 14:17 | 49.72862 | -1.76424 | 17953 ft | 377 kts | 349° |
| 2026-05-01 14:17 | 49.75437 | -1.77199 | 17520 ft | 375 kts | 349° |
| 2026-05-01 14:18 | 49.78001 | -1.77963 | 16969 ft | 376 kts | 349° |
| 2026-05-01 14:18 | 49.80570 | -1.78724 | 16559 ft | 373 kts | 349° |
| 2026-05-01 14:18 | 49.83082 | -1.79468 | 16176 ft | 370 kts | 349° |
| 2026-05-01 14:18 | 49.84789 | -1.79973 | 15922 ft | 367 kts | 349° |
| 2026-05-01 14:19 | 49.88070 | -1.80945 | 15426 ft | 354 kts | 349° |
| 2026-05-01 14:19 | 49.90459 | -1.81655 | 15081 ft | 344 kts | 348° |
| 2026-05-01 14:19 | 49.92778 | -1.82344 | 14738 ft | 334 kts | 348° |
| 2026-05-01 14:19 | 49.95038 | -1.83016 | 14415 ft | 329 kts | 348° |
| 2026-05-01 14:20 | 49.97281 | -1.83683 | 14083 ft | 328 kts | 348° |
| 2026-05-01 14:20 | 50.01782 | -1.84450 | 13344 ft | 328 kts | 5° |
| 2026-05-01 14:20 | 50.04046 | -1.84077 | 13006 ft | 327 kts | 7° |
| 2026-05-01 14:21 | 50.06300 | -1.83688 | 12655 ft | 325 kts | 6° |
| 2026-05-01 14:21 | 50.08552 | -1.83339 | 12320 ft | 324 kts | 6° |
| 2026-05-01 14:21 | 50.10801 | -1.83018 | 11996 ft | 323 kts | 5° |
| 2026-05-01 14:22 | 50.15224 | -1.82212 | 11324 ft | 320 kts | 14° |
| 2026-05-01 14:22 | 50.17374 | -1.81306 | 11002 ft | 319 kts | 18° |
| 2026-05-01 14:22 | 50.19499 | -1.80292 | 10683 ft | 318 kts | 19° |
| 2026-05-01 14:22 | 50.21609 | -1.79276 | 10427 ft | 315 kts | 18° |
| 2026-05-01 14:23 | 50.23668 | -1.78301 | 10268 ft | 308 kts | 18° |
| 2026-05-01 14:23 | 50.25707 | -1.77352 | 9995 ft | 306 kts | 18° |
| 2026-05-01 14:23 | 50.27755 | -1.76412 | 9678 ft | 305 kts | 18° |
| 2026-05-01 14:23 | 50.29795 | -1.75483 | 9369 ft | 304 kts | 17° |
| 2026-05-01 14:24 | 50.31823 | -1.74565 | 9066 ft | 302 kts | 17° |
| 2026-05-01 14:24 | 50.33819 | -1.73663 | 8775 ft | 301 kts | 17° |
| 2026-05-01 14:24 | 50.35827 | -1.72757 | 8490 ft | 299 kts | 17° |
| 2026-05-01 14:24 | 50.37822 | -1.71857 | 8204 ft | 297 kts | 17° |
| 2026-05-01 14:25 | 50.39803 | -1.70963 | 7924 ft | 296 kts | 17° |
| 2026-05-01 14:25 | 50.41784 | -1.70069 | 7643 ft | 294 kts | 17° |
| 2026-05-01 14:25 | 50.43748 | -1.69182 | 7382 ft | 292 kts | 17° |
| 2026-05-01 14:25 | 50.45678 | -1.68309 | 7238 ft | 285 kts | 17° |
| 2026-05-01 14:26 | 50.47522 | -1.67474 | 7192 ft | 274 kts | 17° |
| 2026-05-01 14:26 | 50.51020 | -1.65755 | 7190 ft | 259 kts | 24° |
| 2026-05-01 14:26 | 50.52660 | -1.64614 | 7199 ft | 259 kts | 26° |
| 2026-05-01 14:27 | 50.54318 | -1.63415 | 7193 ft | 262 kts | 26° |
| 2026-05-01 14:27 | 50.55999 | -1.62207 | 7032 ft | 267 kts | 25° |
| 2026-05-01 14:27 | 50.57642 | -1.61041 | 6963 ft | 260 kts | 25° |
| 2026-05-01 14:28 | 50.60875 | -1.58776 | 6663 ft | 251 kts | 25° |
| 2026-05-01 14:28 | 50.62464 | -1.57667 | 6465 ft | 248 kts | 25° |
| 2026-05-01 14:28 | 50.64035 | -1.56570 | 6242 ft | 246 kts | 25° |
| 2026-05-01 14:28 | 50.65617 | -1.55501 | 6016 ft | 248 kts | 18° |
| 2026-05-01 14:29 | 50.67322 | -1.55393 | 5752 ft | 247 kts | 341° |
| 2026-05-01 14:29 | 50.68890 | -1.56454 | 5235 ft | 258 kts | 331° |
| 2026-05-01 14:30 | 50.73612 | -1.60271 | 4494 ft | 253 kts | 330° |
| 2026-05-01 14:30 | 50.75192 | -1.61538 | 4139 ft | 257 kts | 331° |
| 2026-05-01 14:30 | 50.76754 | -1.62782 | 4038 ft | 244 kts | 331° |
| 2026-05-01 14:31 | 50.79726 | -1.65140 | 3017 ft | 247 kts | 328° |
| 2026-05-01 14:31 | 50.80954 | -1.66950 | 2237 ft | 245 kts | 293° |
| 2026-05-01 14:31 | 50.81134 | -1.69490 | 1795 ft | 228 kts | 255° |
| 2026-05-01 14:31 | 50.80713 | -1.71826 | 1511 ft | 215 kts | 252° |
| 2026-05-01 14:32 | 50.80172 | -1.73955 | 1217 ft | 203 kts | 244° |
| 2026-05-01 14:32 | 50.79818 | -1.75293 | 1041 ft | 195 kts | 245° |
| 2026-05-01 14:32 | 50.79237 | -1.77898 | 697 ft | 184 kts | 250° |
| 2026-05-01 14:32 | 50.78860 | -1.79639 | 594 ft | 156 kts | 247° |
| 2026-05-01 14:33 | 50.78507 | -1.81203 | 360 ft | 145 kts | 255° |
| 2026-05-01 14:33 | 50.78270 | -1.82697 | 95 ft | 137 kts | 252° |
| 2026-05-01 14:33 | 50.78045 | -1.84055 | 42 ft | 113 kts | 254° |
| 2026-05-01 14:33 | 50.77950 | -1.84521 | 41 ft | 1 kts | 202° |
| 2026-05-01 14:34 | 50.77926 | -1.84508 | 43 ft | 6 kts | 134° |
| 2026-05-01 14:34 | 50.77884 | -1.84420 | 43 ft | 15 kts | 127° |
| 2026-05-01 14:34 | 50.77815 | -1.84235 | 45 ft | 24 kts | 118° |
| 2026-05-01 14:34 | 50.77756 | -1.84059 | 44 ft | 30 kts | 118° |
| 2026-05-01 14:35 | 50.77704 | -1.83910 | 43 ft | 15 kts | 122° |
| 2026-05-01 14:35 | 50.77647 | -1.83777 | 45 ft | 14 kts | 127° |
| 2026-05-01 14:35 | 50.77592 | -1.83665 | 45 ft | 10 kts | 123° |
| 2026-05-01 14:35 | 50.77578 | -1.83562 | 45 ft | 10 kts | 76° |
| 2026-05-01 14:36 | 50.77611 | -1.83491 | 45 ft | 7 kts | 40° |
| 2026-05-01 14:36 | 50.77659 | -1.83477 | 45 ft | 7 kts | 3° |
| 2026-05-01 14:36 | 50.77706 | -1.83472 | 45 ft | 7 kts | 15° |
| 2026-05-01 14:36 | 50.77749 | -1.83460 | 45 ft | 5 kts | 13° |
| 2026-05-01 14:37 | 50.77754 | -1.83455 | 45 ft | 1 kts | 31° |
| 2026-05-01 14:37 | 50.77761 | -1.83451 | 45 ft | 1 kts | 21° |
| 2026-05-01 14:37 | 50.77763 | -1.83433 | 44 ft | 2 kts | 81° |
| 2026-05-01 14:37 | 50.77765 | -1.83414 | 45 ft | 2 kts | 83° |
| 2026-05-01 14:38 | 50.77766 | -1.83395 | 45 ft | 2 kts | 83° |
| 2026-05-01 14:38 | 50.77767 | -1.83376 | 45 ft | 2 kts | 88° |
| 2026-05-01 14:38 | 50.77767 | -1.83374 | 45 ft | 0 kts | 88° |